Time;durP1;ratioP1;P1;durP2;ratioP2;P2;SDS_P1;SDS_P2;PMS_P1;PMS_P2;Temp;Humidity;BMP_temperature;BMP_pressure;BME280_temperature;BME280_humidity;BME280_pressure;Samples;Min_cycle;Max_cycle;Signal;HPM_P1;HPM_P2
2022/08/23 00:01:48;;;;;;;7.68;5.05;;;18.80;99.90;;;;;;5072163;28;20024;-54
2022/08/23 00:04:20;;;;;;;8.07;4.80;;;18.90;99.90;;;;;;5071983;28;20059;-47
2022/08/23 00:06:47;;;;;;;6.43;3.90;;;18.90;99.90;;;;;;5066628;28;20266;-53
2022/08/23 00:09:14;;;;;;;6.25;4.03;;;18.90;99.90;;;;;;5067143;28;20031;-50
2022/08/23 00:11:46;;;;;;;5.90;4.20;;;18.90;99.90;;;;;;5060320;28;20024;-53
2022/08/23 00:14:26;;;;;;;6.07;3.45;;;18.90;99.90;;;;;;5071799;28;20028;-45
2022/08/23 00:16:53;;;;;;;4.38;2.90;;;18.90;99.90;;;;;;5071634;28;20037;-45
2022/08/23 00:19:21;;;;;;;6.78;2.83;;;18.90;99.90;;;;;;5071808;28;20032;-45
2022/08/23 00:21:49;;;;;;;3.90;2.42;;;19.00;99.90;;;;;;5071373;28;20068;-49
2022/08/23 00:24:16;;;;;;;6.40;2.45;;;18.90;99.90;;;;;;5071659;28;20021;-55
2022/08/23 00:27:08;;;;;;;4.78;2.63;;;19.00;99.90;;;;;;5071430;28;20017;-51
2022/08/23 00:29:38;;;;;;;5.28;2.70;;;19.00;99.90;;;;;;5071173;28;20036;-48
2022/08/23 00:32:07;;;;;;;7.18;2.35;;;19.00;99.90;;;;;;5071412;28;20440;-48
2022/08/23 00:34:34;;;;;;;5.53;2.78;;;19.00;99.90;;;;;;5071452;28;20031;-46
2022/08/23 00:37:00;;;;;;;4.20;2.33;;;19.00;99.90;;;;;;5071161;28;20032;-54
2022/08/23 00:39:26;;;;;;;4.05;2.50;;;19.00;99.90;;;;;;5071404;28;20032;-50
2022/08/23 00:41:58;;;;;;;5.65;2.97;;;19.00;99.90;;;;;;5071112;28;20054;-45
2022/08/23 00:47:56;;;;;;;7.38;2.80;;;19.00;99.90;;;;;;5071108;28;20443;-57
2022/08/23 00:50:09;;;;;;;4.85;2.92;;;19.00;99.90;;;;;;5065456;28;20483;-52
2022/08/23 00:52:44;;;;;;;4.78;2.92;;;19.00;99.90;;;;;;5071470;28;20021;-48
2022/08/23 00:55:11;;;;;;;5.63;3.13;;;19.00;99.90;;;;;;5069944;28;20316;-47
2022/08/23 00:57:37;;;;;;;5.85;2.90;;;19.00;99.90;;;;;;5069657;28;20059;-47
2022/08/23 01:00:07;;;;;;;7.13;3.40;;;19.00;99.90;;;;;;5070922;28;20028;-53
2022/08/23 01:02:33;;;;;;;5.47;2.80;;;19.00;99.90;;;;;;5070799;28;20414;-50
2022/08/23 01:05:00;;;;;;;7.60;3.17;;;19.00;99.90;;;;;;5071096;28;20028;-45
2022/08/23 01:07:49;;;;;;;7.70;3.42;;;19.00;99.90;;;;;;5070938;28;20040;-52
2022/08/23 01:10:23;;;;;;;6.18;3.28;;;19.00;99.90;;;;;;5071043;28;20031;-55
2022/08/23 01:12:54;;;;;;;6.35;2.60;;;19.00;99.90;;;;;;5071129;28;20031;-46
2022/08/23 01:15:44;;;;;;;5.45;3.03;;;19.00;99.90;;;;;;5070915;28;20023;-47
2022/08/23 01:18:13;;;;;;;8.18;2.95;;;19.00;99.90;;;;;;5070752;28;20024;-47
2022/08/23 01:20:49;;;;;;;7.82;2.95;;;19.00;99.90;;;;;;5070851;28;20024;-44
2022/08/23 01:23:38;;;;;;;7.18;3.17;;;19.00;99.90;;;;;;5070686;28;20060;-45
2022/08/23 01:26:04;;;;;;;7.18;3.05;;;19.00;99.90;;;;;;5070815;28;20035;-48
2022/08/23 01:28:30;;;;;;;5.78;3.22;;;19.00;99.90;;;;;;5070453;28;20403;-45
2022/08/23 01:30:56;;;;;;;8.25;3.03;;;19.00;99.90;;;;;;5070707;28;20463;-49
2022/08/23 01:33:22;;;;;;;6.35;2.88;;;19.00;99.90;;;;;;5069351;28;20116;-45
2022/08/23 01:35:52;;;;;;;7.57;3.55;;;19.00;99.90;;;;;;5069663;28;20040;-52
2022/08/23 01:38:19;;;;;;;5.25;2.58;;;19.00;99.90;;;;;;5068358;28;20039;-61
2022/08/23 01:40:45;;;;;;;10.02;3.28;;;19.00;99.90;;;;;;5070354;28;20391;-47
2022/08/23 01:43:12;;;;;;;6.80;2.97;;;19.00;99.90;;;;;;5070654;28;20113;-47
2022/08/23 01:45:38;;;;;;;9.80;3.05;;;19.00;99.90;;;;;;5070541;28;20037;-52
2022/08/23 01:48:04;;;;;;;8.93;3.17;;;19.00;99.90;;;;;;5070521;28;20486;-54
2022/08/23 01:50:30;;;;;;;7.20;3.28;;;19.00;99.90;;;;;;5070768;28;20024;-47
2022/08/23 01:52:57;;;;;;;9.75;3.40;;;19.00;99.90;;;;;;5070370;28;20025;-51
2022/08/23 01:55:23;;;;;;;8.25;3.33;;;19.00;99.90;;;;;;5070498;28;20040;-52
2022/08/23 01:57:55;;;;;;;6.90;3.15;;;19.00;99.90;;;;;;5070251;28;20119;-48
2022/08/23 02:00:29;;;;;;;10.75;3.65;;;19.00;99.90;;;;;;5070739;28;20429;-52
2022/08/23 02:02:55;;;;;;;10.70;3.20;;;19.00;99.90;;;;;;5070383;28;20033;-51
2022/08/23 02:05:21;;;;;;;7.45;3.28;;;19.00;99.90;;;;;;5070510;28;20103;-53
2022/08/23 02:07:47;;;;;;;8.15;3.35;;;19.00;99.90;;;;;;5070512;28;20035;-54
2022/08/23 02:10:14;;;;;;;9.70;3.45;;;19.00;99.90;;;;;;5070146;28;20016;-48
2022/08/23 02:12:40;;;;;;;8.98;3.90;;;19.00;99.90;;;;;;5072408;28;20028;-51
2022/08/23 02:15:06;;;;;;;8.05;3.42;;;19.00;99.90;;;;;;5074095;28;20017;-54
2022/08/23 02:17:33;;;;;;;9.07;3.20;;;18.90;99.90;;;;;;5074153;28;20070;-52
2022/08/23 02:20:00;;;;;;;9.95;3.40;;;19.00;99.90;;;;;;5074060;28;20081;-45
2022/08/23 02:22:26;;;;;;;8.80;3.20;;;18.90;99.90;;;;;;5074034;28;20021;-53
2022/08/23 02:24:52;;;;;;;12.82;3.65;;;19.00;99.90;;;;;;5074047;28;20146;-54
2022/08/23 02:27:18;;;;;;;8.43;2.88;;;18.90;99.90;;;;;;5073737;28;20020;-50
2022/08/23 02:29:45;;;;;;;8.75;3.30;;;19.00;99.90;;;;;;5074066;28;20028;-51
2022/08/23 02:32:13;;;;;;;10.52;3.28;;;18.90;99.90;;;;;;5073883;28;20117;-50
2022/08/23 02:34:39;;;;;;;10.55;3.17;;;18.90;99.90;;;;;;5074011;28;20107;-45
2022/08/23 02:37:07;;;;;;;9.00;3.22;;;18.90;99.90;;;;;;5073678;28;20024;-45
2022/08/23 02:39:34;;;;;;;9.02;3.10;;;18.90;99.90;;;;;;5073777;28;20483;-51
2022/08/23 02:42:00;;;;;;;7.28;3.15;;;18.90;99.90;;;;;;5073975;28;20074;-45
2022/08/23 02:44:25;;;;;;;9.55;3.00;;;18.90;99.90;;;;;;5073575;28;20463;-51
2022/08/23 02:46:51;;;;;;;9.18;3.22;;;18.80;99.90;;;;;;5073669;28;20083;-54
2022/08/23 02:49:18;;;;;;;11.25;3.40;;;18.80;99.90;;;;;;5073568;28;20027;-54
2022/08/23 02:51:44;;;;;;;9.88;3.28;;;18.80;99.90;;;;;;5073525;28;20043;-49
2022/08/23 02:54:10;;;;;;;9.07;2.92;;;18.80;99.90;;;;;;5073384;28;20024;-49
2022/08/23 02:56:36;;;;;;;4.85;2.50;;;18.80;99.90;;;;;;5073117;28;20098;-48
2022/08/23 02:59:04;;;;;;;8.45;2.88;;;18.80;99.90;;;;;;5073280;28;20028;-47
2022/08/23 03:01:36;;;;;;;9.02;3.00;;;18.80;99.90;;;;;;5073110;28;20082;-48
2022/08/23 03:04:03;;;;;;;7.10;2.65;;;18.80;99.90;;;;;;5073178;28;20111;-51
2022/08/23 03:06:29;;;;;;;5.07;2.58;;;18.80;99.90;;;;;;5073026;28;20090;-49
2022/08/23 03:08:56;;;;;;;8.30;2.72;;;18.80;99.90;;;;;;5073123;28;20078;-45
2022/08/23 03:11:23;;;;;;;6.95;2.40;;;18.80;99.90;;;;;;5073195;28;20025;-50
2022/08/23 03:13:51;;;;;;;9.70;3.17;;;18.80;99.90;;;;;;5073144;28;20095;-50
2022/08/23 03:16:17;;;;;;;10.18;3.40;;;18.80;99.90;;;;;;5072878;28;20031;-53
2022/08/23 03:18:44;;;;;;;10.18;2.80;;;18.80;99.90;;;;;;5072906;28;20108;-47
2022/08/23 03:21:10;;;;;;;8.57;3.08;;;18.80;99.90;;;;;;5072873;28;20467;-48
2022/08/23 03:23:37;;;;;;;10.70;3.10;;;18.70;99.90;;;;;;5071879;28;20028;-54
2022/08/23 03:26:05;;;;;;;8.88;2.90;;;18.70;99.90;;;;;;5072996;28;20035;-50
2022/08/23 03:28:34;;;;;;;7.05;3.08;;;18.70;99.90;;;;;;5072776;28;20034;-56
2022/08/23 03:31:00;;;;;;;8.20;2.80;;;18.70;99.90;;;;;;5072749;28;20026;-50
2022/08/23 03:33:25;;;;;;;8.23;2.72;;;18.70;99.90;;;;;;5072489;28;20021;-56
2022/08/23 03:35:51;;;;;;;6.63;2.97;;;18.70;99.90;;;;;;5072643;28;20369;-48
2022/08/23 03:38:18;;;;;;;8.35;2.70;;;18.60;99.90;;;;;;5072516;28;20036;-53
2022/08/23 03:40:44;;;;;;;6.88;2.70;;;18.60;99.90;;;;;;5072639;28;20078;-54
2022/08/23 03:43:10;;;;;;;4.38;2.70;;;18.60;99.90;;;;;;5072400;28;20112;-51
2022/08/23 03:45:36;;;;;;;10.50;3.20;;;18.60;99.90;;;;;;5072006;28;20131;-49
2022/08/23 03:48:03;;;;;;;8.95;2.58;;;18.60;99.90;;;;;;5072291;28;20066;-54
2022/08/23 03:50:29;;;;;;;8.60;2.90;;;18.60;99.90;;;;;;5072339;28;20024;-51
2022/08/23 03:52:54;;;;;;;5.80;2.42;;;18.60;99.90;;;;;;5072399;28;20141;-48
2022/08/23 03:55:20;;;;;;;4.40;2.38;;;18.60;99.90;;;;;;5072184;28;20429;-52
2022/08/23 03:57:47;;;;;;;10.40;2.38;;;18.60;99.90;;;;;;5071990;28;20115;-45
2022/08/23 04:00:14;;;;;;;7.55;2.38;;;18.60;99.90;;;;;;5072152;28;20052;-49
2022/08/23 04:02:40;;;;;;;4.10;2.60;;;18.60;99.90;;;;;;5071852;28;20521;-45
2022/08/23 04:05:09;;;;;;;4.85;2.35;;;18.60;99.90;;;;;;5072065;28;20012;-49
2022/08/23 04:07:37;;;;;;;9.10;2.95;;;18.60;99.90;;;;;;5071874;28;20032;-48
2022/08/23 04:10:05;;;;;;;5.53;2.53;;;18.60;99.90;;;;;;5071834;28;20036;-48
2022/08/23 04:12:31;;;;;;;6.45;2.30;;;18.60;99.90;;;;;;5071768;28;20032;-54
2022/08/23 04:14:56;;;;;;;6.50;2.28;;;18.60;99.90;;;;;;5072008;28;20016;-56
2022/08/23 04:17:22;;;;;;;6.43;2.63;;;18.60;99.90;;;;;;5071580;28;20502;-51
2022/08/23 04:19:48;;;;;;;5.75;2.40;;;18.60;99.90;;;;;;5071618;28;20383;-46
2022/08/23 04:22:16;;;;;;;6.15;2.40;;;18.60;99.90;;;;;;5071813;28;20481;-47
2022/08/23 04:24:43;;;;;;;5.00;2.20;;;18.60;99.90;;;;;;5071643;28;20247;-56
2022/08/23 04:27:09;;;;;;;6.05;2.40;;;18.60;99.90;;;;;;5071511;28;20031;-52
2022/08/23 04:29:36;;;;;;;9.00;2.83;;;18.60;99.90;;;;;;5071550;28;20107;-49
2022/08/23 04:32:03;;;;;;;6.57;2.22;;;18.60;99.90;;;;;;5071394;28;20024;-46
2022/08/23 04:34:28;;;;;;;8.43;2.30;;;18.60;99.90;;;;;;5071414;28;20654;-52
2022/08/23 04:36:54;;;;;;;5.28;2.30;;;18.60;99.90;;;;;;5071311;28;20115;-48
2022/08/23 04:39:20;;;;;;;9.50;2.45;;;18.60;99.90;;;;;;5071418;28;20033;-49
2022/08/23 04:44:29;;;;;;;5.85;2.00;;;18.60;99.90;;;;;;5071468;28;20078;-48
2022/08/23 04:46:55;;;;;;;6.22;2.53;;;18.60;99.90;;;;;;5071083;28;20045;-54
2022/08/23 04:49:22;;;;;;;4.53;2.00;;;18.60;99.90;;;;;;5071283;28;20048;-48
2022/08/23 04:51:48;;;;;;;6.40;2.28;;;18.50;99.90;;;;;;5071117;28;20030;-50
2022/08/23 04:54:14;;;;;;;7.15;2.15;;;18.60;99.90;;;;;;5071160;28;20032;-49
2022/08/23 04:56:41;;;;;;;4.00;2.30;;;18.50;99.90;;;;;;5071054;28;20024;-48
2022/08/23 04:59:08;;;;;;;7.60;2.63;;;18.60;99.90;;;;;;5071006;28;20108;-45
2022/08/23 05:01:34;;;;;;;5.97;2.25;;;18.60;99.90;;;;;;5071022;28;20095;-46
2022/08/23 05:04:04;;;;;;;8.05;2.30;;;18.60;99.90;;;;;;5071066;28;20021;-48
2022/08/23 05:06:30;;;;;;;7.47;2.33;;;18.60;99.90;;;;;;5070849;28;20061;-50
2022/08/23 05:08:56;;;;;;;5.07;2.53;;;18.60;99.90;;;;;;5071169;28;20097;-49
2022/08/23 05:11:22;;;;;;;4.95;2.10;;;18.50;99.90;;;;;;5070893;28;20162;-50
2022/08/23 05:13:48;;;;;;;11.02;2.38;;;18.50;99.90;;;;;;5070892;28;20489;-49
2022/08/23 05:16:15;;;;;;;5.70;2.22;;;18.50;99.90;;;;;;5070361;28;20100;-49
2022/08/23 05:18:41;;;;;;;7.28;2.30;;;18.50;99.90;;;;;;5070869;28;20027;-48
2022/08/23 05:21:07;;;;;;;6.82;2.47;;;18.40;99.90;;;;;;5070768;28;20021;-46
2022/08/23 05:23:32;;;;;;;4.70;2.08;;;18.50;99.90;;;;;;5070618;28;20029;-48
2022/08/23 05:25:59;;;;;;;3.58;2.08;;;18.40;99.90;;;;;;5070787;28;20028;-47
2022/08/23 05:28:28;;;;;;;6.88;2.00;;;18.40;99.90;;;;;;5070514;28;20021;-54
2022/08/23 05:30:59;;;;;;;7.72;2.38;;;18.40;99.90;;;;;;5071041;28;20023;-50
2022/08/23 05:33:25;;;;;;;4.32;2.00;;;18.40;99.90;;;;;;5070462;28;20368;-49
2022/08/23 05:35:51;;;;;;;4.25;1.98;;;18.40;99.90;;;;;;5070843;28;20029;-45
2022/08/23 05:38:17;;;;;;;6.55;2.08;;;18.40;99.90;;;;;;5070554;28;20106;-46
2022/08/23 05:40:43;;;;;;;7.28;2.03;;;18.40;99.90;;;;;;5070588;28;20466;-54
2022/08/23 05:43:09;;;;;;;8.13;2.53;;;18.40;99.90;;;;;;5070468;28;20036;-52
2022/08/23 05:45:35;;;;;;;5.38;2.13;;;18.40;99.90;;;;;;5070357;28;20477;-49
2022/08/23 05:48:01;;;;;;;5.10;2.13;;;18.40;99.90;;;;;;5073143;28;20133;-49
2022/08/23 05:50:26;;;;;;;3.72;2.22;;;18.50;99.90;;;;;;5074802;28;20025;-48
2022/08/23 05:52:52;;;;;;;6.43;2.28;;;18.50;99.90;;;;;;5074574;28;20509;-50
2022/08/23 05:55:18;;;;;;;4.03;2.10;;;18.50;99.90;;;;;;5074532;28;20081;-49
2022/08/23 05:57:44;;;;;;;5.05;2.00;;;18.50;99.90;;;;;;5074443;28;20479;-45
2022/08/23 06:00:13;;;;;;;3.63;2.03;;;18.50;99.90;;;;;;5074664;28;20020;-51
2022/08/23 06:02:39;;;;;;;4.53;2.58;;;18.60;99.90;;;;;;5074329;28;20031;-49
2022/08/23 06:05:05;;;;;;;5.40;2.50;;;18.60;99.90;;;;;;5074475;28;20028;-53
2022/08/23 06:07:33;;;;;;;6.45;2.30;;;18.70;99.90;;;;;;5074258;28;20032;-46
2022/08/23 06:09:59;;;;;;;3.97;1.92;;;18.70;99.90;;;;;;5073951;28;20032;-51
2022/08/23 06:12:25;;;;;;;4.80;1.90;;;18.70;99.90;;;;;;5072961;28;20479;-49
2022/08/23 06:14:51;;;;;;;2.83;2.15;;;18.80;99.90;;;;;;5073953;28;20078;-49
2022/08/23 06:17:17;;;;;;;3.47;1.92;;;18.80;99.90;;;;;;5074038;28;20037;-55
2022/08/23 06:19:42;;;;;;;4.93;2.40;;;18.90;99.90;;;;;;5074068;28;20017;-54
2022/08/23 06:22:08;;;;;;;5.78;2.08;;;18.90;99.90;;;;;;5074170;28;20077;-46
2022/08/23 06:24:35;;;;;;;3.97;2.13;;;19.00;99.90;;;;;;5074122;28;20044;-55
2022/08/23 06:27:01;;;;;;;4.22;2.05;;;19.00;99.90;;;;;;5073824;28;20016;-51
2022/08/23 06:29:27;;;;;;;3.20;1.90;;;19.10;99.90;;;;;;5074005;28;20493;-52
2022/08/23 06:31:52;;;;;;;5.40;1.90;;;19.10;99.90;;;;;;5073909;28;20020;-53
2022/08/23 06:34:32;;;;;;;7.03;1.92;;;19.20;99.90;;;;;;5074286;28;20062;-49
2022/08/23 06:37:00;;;;;;;4.30;2.00;;;19.30;99.90;;;;;;5073545;28;20052;-53
2022/08/23 06:39:28;;;;;;;3.70;1.90;;;19.30;99.90;;;;;;5073993;28;20040;-47
2022/08/23 06:42:06;;;;;;;4.30;1.90;;;19.30;99.90;;;;;;5073715;28;20127;-45
2022/08/23 06:44:34;;;;;;;3.70;1.67;;;19.40;99.90;;;;;;5073630;28;20111;-53
2022/08/23 06:47:00;;;;;;;6.13;1.98;;;19.50;99.90;;;;;;5071836;28;20045;-49
2022/08/23 06:49:26;;;;;;;3.67;1.70;;;19.60;99.90;;;;;;5072994;28;20024;-51
2022/08/23 06:51:55;;;;;;;3.78;1.65;;;19.70;99.90;;;;;;5069707;28;20020;-46
2022/08/23 06:54:24;;;;;;;3.10;1.80;;;19.70;99.90;;;;;;5066889;28;20415;-48
2022/08/23 06:56:50;;;;;;;4.82;1.83;;;19.70;99.90;;;;;;5067609;28;20112;-48
2022/08/23 06:59:17;;;;;;;5.75;1.83;;;19.70;99.90;;;;;;5070233;28;20043;-50
2022/08/23 07:01:59;;;;;;;4.00;1.70;;;19.70;99.90;;;;;;5072195;28;20020;-47
2022/08/23 07:04:31;;;;;;;2.65;1.63;;;19.60;99.90;;;;;;5072908;28;20034;-51
2022/08/23 07:06:57;;;;;;;5.25;1.90;;;19.60;99.90;;;;;;5073228;28;20487;-48
2022/08/23 07:09:24;;;;;;;4.47;2.00;;;19.50;99.90;;;;;;5072105;28;20149;-55
2022/08/23 07:11:50;;;;;;;4.15;2.40;;;19.40;99.90;;;;;;5063971;28;20518;-50
2022/08/23 07:14:17;;;;;;;4.00;2.00;;;19.40;99.90;;;;;;5067707;28;20032;-55
2022/08/23 07:16:47;;;;;;;5.65;2.10;;;19.30;99.90;;;;;;5072238;28;20020;-51
2022/08/23 07:19:14;;;;;;;3.25;1.90;;;19.40;99.90;;;;;;5072432;28;20078;-49
2022/08/23 07:21:41;;;;;;;5.35;1.90;;;19.40;99.90;;;;;;5072170;28;20459;-52
2022/08/23 07:24:08;;;;;;;5.55;1.90;;;19.50;99.90;;;;;;5072215;28;20032;-48
2022/08/23 07:26:35;;;;;;;6.70;1.80;;;19.50;99.90;;;;;;5065616;28;20089;-54
2022/08/23 07:29:05;;;;;;;6.75;1.75;;;19.60;99.90;;;;;;5065677;28;20107;-55
2022/08/23 07:31:33;;;;;;;4.45;1.58;;;19.70;99.90;;;;;;5078360;28;20213;-52
2022/08/23 07:34:03;;;;;;;4.80;1.97;;;19.80;99.90;;;;;;5071589;28;20031;-53
2022/08/23 07:36:30;;;;;;;3.20;1.60;;;19.90;99.90;;;;;;5065716;28;20755;-56
2022/08/23 07:38:56;;;;;;;3.28;2.10;;;20.00;99.90;;;;;;5071811;28;20050;-55
2022/08/23 07:41:24;;;;;;;3.67;1.73;;;20.20;99.90;;;;;;5072418;28;20033;-50
2022/08/23 07:43:50;;;;;;;5.10;2.03;;;20.50;99.90;;;;;;5071297;28;20090;-48
2022/08/23 07:46:16;;;;;;;3.92;1.52;;;20.80;99.90;;;;;;5070160;28;20044;-47
2022/08/23 07:48:42;;;;;;;4.40;1.77;;;21.10;99.90;;;;;;5070381;28;20024;-53
2022/08/23 07:51:11;;;;;;;3.13;1.70;;;21.30;99.90;;;;;;5070447;28;20223;-47
2022/08/23 07:53:38;;;;;;;6.03;1.38;;;22.00;99.90;;;;;;5079375;28;20431;-48
2022/08/23 07:56:08;;;;;;;4.18;1.60;;;22.90;99.90;;;;;;5072097;28;20376;-49
2022/08/23 07:58:34;;;;;;;3.33;1.40;;;24.30;99.90;;;;;;5069488;28;20044;-52
2022/08/23 08:01:14;;;;;;;4.55;1.30;;;24.80;99.90;;;;;;5070396;28;20020;-46
2022/08/23 08:03:41;;;;;;;7.55;1.90;;;25.30;99.90;;;;;;5068798;28;20020;-49
2022/08/23 08:06:11;;;;;;;4.03;0.90;;;25.70;99.90;;;;;;5069861;28;20472;-51
2022/08/23 08:08:39;;;;;;;2.28;1.10;;;26.30;99.90;;;;;;5068548;28;20012;-49
2022/08/23 08:11:06;;;;;;;4.22;1.25;;;27.30;96.90;;;;;;5070690;28;20047;-48
2022/08/23 08:13:32;;;;;;;2.13;0.90;;;27.40;94.80;;;;;;5071103;28;20012;-49
2022/08/23 08:15:58;;;;;;;4.60;1.05;;;26.90;96.70;;;;;;5062013;28;20028;-50
2022/08/23 08:18:24;;;;;;;3.25;1.00;;;26.30;96.10;;;;;;5068196;28;20039;-51
2022/08/23 08:20:50;;;;;;;2.30;1.30;;;25.40;97.70;;;;;;5069728;28;20013;-53
2022/08/23 08:23:16;;;;;;;3.03;1.33;;;24.70;98.60;;;;;;5058857;28;20613;-49
2022/08/23 08:25:42;;;;;;;2.63;1.10;;;24.00;99.90;;;;;;5069865;28;20212;-50
2022/08/23 08:28:08;;;;;;;2.20;1.15;;;23.60;99.90;;;;;;5069512;28;20519;-52
2022/08/23 08:30:33;;;;;;;2.75;1.30;;;23.60;99.90;;;;;;5071308;28;20024;-52
2022/08/23 08:32:59;;;;;;;2.45;0.88;;;24.50;99.90;;;;;;5070874;28;20042;-48
2022/08/23 08:35:25;;;;;;;6.65;1.00;;;26.10;99.00;;;;;;5063861;28;20025;-45
2022/08/23 08:37:50;;;;;;;3.10;0.90;;;26.30;96.80;;;;;;5064334;28;20036;-48
2022/08/23 08:40:23;;;;;;;2.78;0.90;;;25.80;96.00;;;;;;5065396;28;20027;-47
2022/08/23 08:43:30;;;;;;;1.13;0.90;;;25.40;97.70;;;;;;5067353;28;20028;-47
2022/08/23 08:46:22;;;;;;;3.10;1.00;;;25.60;97.20;;;;;;5001194;28;20382;-50
2022/08/23 08:48:54;;;;;;;2.28;0.80;;;27.90;96.00;;;;;;5045486;28;20051;-45
2022/08/23 08:51:46;;;;;;;2.33;1.00;;;29.20;92.30;;;;;;5042276;28;20095;-51
2022/08/23 08:54:16;;;;;;;1.40;0.85;;;30.30;91.10;;;;;;5047733;28;20025;-46
2022/08/23 08:56:47;;;;;;;1.98;0.70;;;30.80;88.20;;;;;;5048231;28;20029;-52
2022/08/23 08:59:23;;;;;;;1.55;0.90;;;30.10;85.70;;;;;;5046115;28;20021;-46
2022/08/23 09:01:49;;;;;;;2.05;0.90;;;29.30;90.30;;;;;;5042813;28;20512;-47
2022/08/23 09:04:15;;;;;;;3.20;0.90;;;28.70;90.30;;;;;;5048823;28;20021;-46
2022/08/23 09:06:53;;;;;;;1.50;0.80;;;27.70;91.70;;;;;;5049697;28;20020;-50
2022/08/23 09:09:25;;;;;;;3.95;1.10;;;27.00;92.40;;;;;;5048041;28;20083;-48
2022/08/23 09:12:19;;;;;;;2.75;1.02;;;27.00;93.80;;;;;;5040982;28;20021;-49
2022/08/23 09:15:01;;;;;;;3.80;1.27;;;27.60;93.10;;;;;;5045429;28;20032;-49
2022/08/23 09:17:48;;;;;;;2.08;1.15;;;27.80;92.00;;;;;;5042215;28;20040;-50
2022/08/23 09:20:16;;;;;;;2.35;1.00;;;27.50;93.20;;;;;;5045294;28;20480;-51
2022/08/23 09:22:48;;;;;;;3.47;1.30;;;27.10;94.50;;;;;;5040481;28;20112;-53
2022/08/23 09:25:15;;;;;;;2.75;1.17;;;27.40;93.50;;;;;;5032447;28;20018;-53
2022/08/23 09:27:43;;;;;;;2.22;1.15;;;27.10;94.50;;;;;;5047079;28;20032;-51
2022/08/23 09:30:11;;;;;;;1.42;0.90;;;26.90;94.40;;;;;;5036701;28;20017;-48
2022/08/23 09:32:40;;;;;;;3.72;1.10;;;26.30;94.90;;;;;;5045622;28;20075;-55
2022/08/23 09:35:12;;;;;;;2.58;0.90;;;25.60;96.00;;;;;;5045084;28;20440;-55
2022/08/23 09:37:49;;;;;;;3.35;1.23;;;25.20;97.20;;;;;;5044526;28;20026;-46
2022/08/23 09:40:17;;;;;;;1.73;1.13;;;25.00;97.60;;;;;;5045352;28;20075;-55
2022/08/23 09:42:43;;;;;;;2.42;1.10;;;24.60;98.30;;;;;;5042640;28;20021;-49
2022/08/23 09:45:29;;;;;;;1.55;0.80;;;24.50;99.60;;;;;;5046653;28;20033;-48
2022/08/23 09:47:55;;;;;;;2.75;0.98;;;24.60;98.80;;;;;;5062196;28;20368;-46
2022/08/23 09:50:29;;;;;;;2.80;1.15;;;24.40;99.60;;;;;;5057204;28;20111;-49
2022/08/23 09:53:05;;;;;;;2.45;1.00;;;24.40;99.90;;;;;;5067595;28;20525;-48
2022/08/23 09:55:37;;;;;;;1.42;0.95;;;24.70;99.90;;;;;;5066387;28;20040;-51
2022/08/23 09:58:14;;;;;;;2.88;0.90;;;25.00;99.90;;;;;;5067355;28;20029;-56
2022/08/23 10:00:40;;;;;;;2.97;1.00;;;24.90;99.50;;;;;;5068940;28;20020;-50
2022/08/23 10:03:28;;;;;;;1.95;1.00;;;25.00;99.90;;;;;;5067526;28;20021;-49
2022/08/23 10:05:59;;;;;;;2.35;1.02;;;24.90;99.30;;;;;;5060064;28;20032;-51
2022/08/23 10:08:32;;;;;;;3.47;1.30;;;24.80;99.00;;;;;;5059909;28;20503;-52
2022/08/23 10:11:25;;;;;;;2.58;1.00;;;24.90;99.70;;;;;;5065483;28;20040;-50
2022/08/23 10:13:51;;;;;;;3.63;0.98;;;25.10;99.90;;;;;;5061200;28;20123;-56
2022/08/23 10:16:31;;;;;;;1.65;0.75;;;25.30;98.50;;;;;;5059223;28;20507;-50
2022/08/23 10:19:06;;;;;;;2.20;0.80;;;25.30;98.90;;;;;;5067938;28;20032;-47
2022/08/23 10:21:43;;;;;;;4.97;1.02;;;25.10;99.10;;;;;;5065833;28;20012;-48
2022/08/23 10:24:12;;;;;;;2.90;1.13;;;25.10;98.90;;;;;;5067354;28;20028;-48
2022/08/23 10:26:45;;;;;;;3.72;1.00;;;24.90;99.10;;;;;;5066028;28;20044;-54
2022/08/23 10:29:37;;;;;;;3.30;1.30;;;24.60;99.70;;;;;;5064985;28;20457;-52
2022/08/23 10:32:17;;;;;;;6.43;1.30;;;24.50;99.90;;;;;;5056565;28;20021;-51
2022/08/23 10:34:55;;;;;;;2.05;1.10;;;24.60;99.90;;;;;;5065766;28;20081;-49
2022/08/23 10:37:45;;;;;;;2.60;1.20;;;24.60;99.90;;;;;;5064282;28;20119;-50
2022/08/23 10:40:24;;;;;;;2.03;1.05;;;24.40;99.90;;;;;;5066013;28;20036;-53
2022/08/23 10:43:25;;;;;;;2.03;1.20;;;24.30;99.90;;;;;;5067637;28;20039;-52
2022/08/23 10:45:51;;;;;;;2.05;0.90;;;24.10;99.90;;;;;;5069913;28;20469;-50
2022/08/23 10:48:50;;;;;;;2.22;1.00;;;24.00;99.90;;;;;;5070137;28;20033;-54
2022/08/23 10:51:22;;;;;;;3.28;1.00;;;24.10;99.90;;;;;;5069741;28;20036;-52
2022/08/23 10:54:11;;;;;;;1.42;0.88;;;24.70;99.90;;;;;;5060257;28;20523;-44
2022/08/23 10:56:37;;;;;;;2.47;0.73;;;25.50;99.60;;;;;;5068334;28;20086;-51
2022/08/23 10:59:03;;;;;;;1.33;0.80;;;26.20;99.10;;;;;;5067920;28;20055;-46
2022/08/23 11:02:06;;;;;;;2.05;0.85;;;26.10;97.40;;;;;;5066981;28;20078;-50
2022/08/23 11:04:38;;;;;;;1.63;0.90;;;25.80;98.80;;;;;;5071867;28;20024;-53
2022/08/23 11:07:19;;;;;;;4.28;0.70;;;25.20;98.60;;;;;;5070562;28;20090;-48
2022/08/23 11:09:57;;;;;;;1.52;0.73;;;24.70;99.50;;;;;;5068858;28;20111;-47
2022/08/23 11:12:28;;;;;;;2.33;0.90;;;24.40;99.90;;;;;;5068980;28;20067;-49
2022/08/23 11:15:06;;;;;;;1.27;0.60;;;24.20;99.90;;;;;;5070832;28;20031;-50
2022/08/23 11:17:50;;;;;;;0.55;0.40;;;24.10;99.90;;;;;;5070355;28;20588;-51
2022/08/23 11:20:47;;;;;;;0.60;0.50;;;23.90;99.90;;;;;;5070639;28;20070;-47
2022/08/23 11:23:37;;;;;;;1.05;0.50;;;24.00;99.90;;;;;;5071477;28;20048;-48
2022/08/23 11:26:07;;;;;;;0.70;0.40;;;24.20;99.90;;;;;;5045833;28;20037;-48
2022/08/23 11:28:40;;;;;;;0.40;0.40;;;24.10;99.90;;;;;;5069169;28;20016;-49
2022/08/23 11:31:08;;;;;;;0.40;0.40;;;24.10;99.90;;;;;;5069938;28;20067;-53
2022/08/23 11:33:39;;;;;;;1.33;0.40;;;24.10;99.90;;;;;;5070137;28;20031;-54
2022/08/23 11:36:08;;;;;;;0.65;0.47;;;24.20;99.90;;;;;;5069790;28;20332;-46
2022/08/23 11:38:45;;;;;;;1.07;0.63;;;24.40;99.90;;;;;;5071550;28;20026;-49
2022/08/23 11:41:17;;;;;;;0.77;0.45;;;24.50;99.90;;;;;;5068114;28;20269;-50
2022/08/23 11:43:56;;;;;;;0.57;0.40;;;24.70;99.90;;;;;;5069749;28;20028;-47
2022/08/23 11:46:21;;;;;;;;;;;25.00;99.90;;;;;;5070251;28;20072;-47
2022/08/23 11:49:27;;;;;;;1.20;0.43;;;25.20;99.90;;;;;;5071084;28;19947;-47
2022/08/23 11:52:14;;;;;;;0.95;0.50;;;25.30;99.90;;;;;;5068874;28;20040;-48
2022/08/23 11:55:17;;;;;;;0.73;0.40;;;24.90;99.90;;;;;;5070788;28;20039;-46
2022/08/23 11:58:18;;;;;;;1.27;0.40;;;24.50;99.90;;;;;;5070665;28;20046;-49
2022/08/23 12:01:09;;;;;;;0.85;0.40;;;24.40;99.90;;;;;;5070168;28;20020;-51
2022/08/23 12:03:55;;;;;;;0.50;0.30;;;24.30;99.90;;;;;;5069036;28;20433;-51
2022/08/23 12:06:45;;;;;;;0.43;0.40;;;24.00;99.90;;;;;;5070819;28;20371;-47
2022/08/23 12:09:19;;;;;;;0.40;0.40;;;24.00;99.90;;;;;;5070697;28;20047;-48
2022/08/23 12:11:54;;;;;;;0.35;0.35;;;23.90;99.90;;;;;;5066593;28;20068;-48
2022/08/23 12:14:46;;;;;;;1.40;0.60;;;24.00;99.90;;;;;;5052661;28;20025;-49
2022/08/23 12:17:12;;;;;;;0.95;0.50;;;24.00;99.90;;;;;;5064250;28;20083;-51
2022/08/23 12:19:57;;;;;;;1.20;0.63;;;24.40;99.90;;;;;;5064987;28;20482;-53
2022/08/23 12:22:28;;;;;;;0.88;0.52;;;24.60;99.90;;;;;;5054434;28;20052;-51
2022/08/23 12:25:05;;;;;;;1.75;0.47;;;24.60;99.90;;;;;;5067278;28;20029;-52
2022/08/23 12:27:42;;;;;;;1.10;0.57;;;24.60;99.90;;;;;;5071628;28;20028;-50
2022/08/23 12:30:17;;;;;;;0.90;0.60;;;24.70;99.90;;;;;;5071452;28;20085;-48
2022/08/23 12:33:15;;;;;;;1.45;0.50;;;24.50;99.90;;;;;;5065665;28;20433;-47
2022/08/23 12:35:51;;;;;;;1.27;0.77;;;24.40;99.90;;;;;;5006229;28;20026;-56
2022/08/23 12:38:37;;;;;;;0.73;0.68;;;24.20;99.90;;;;;;5068368;28;20067;-52
2022/08/23 12:41:46;;;;;;;0.98;0.80;;;24.00;99.90;;;;;;5069504;28;20226;-49
2022/08/23 12:44:18;;;;;;;3.47;0.90;;;23.80;99.90;;;;;;5042382;28;20744;-50
2022/08/23 12:46:46;;;;;;;1.80;0.90;;;23.60;99.90;;;;;;5069861;28;20067;-47
2022/08/23 12:49:34;;;;;;;1.08;0.80;;;23.40;99.90;;;;;;5068512;28;20031;-47
2022/08/23 12:52:05;;;;;;;1.08;0.88;;;23.30;99.90;;;;;;5067614;28;20029;-53
2022/08/23 12:54:33;;;;;;;1.27;0.77;;;23.20;99.90;;;;;;5069540;28;20360;-54
2022/08/23 12:57:00;;;;;;;0.93;0.70;;;23.20;99.90;;;;;;5069862;28;20028;-59
2022/08/23 12:59:36;;;;;;;0.60;0.60;;;23.20;99.90;;;;;;5069706;28;20533;-54
2022/08/23 13:02:07;;;;;;;0.57;0.57;;;23.20;99.90;;;;;;5067990;28;20108;-57
2022/08/23 13:04:36;;;;;;;0.60;0.60;;;23.30;99.90;;;;;;5069432;28;20046;-52
2022/08/23 13:07:07;;;;;;;1.00;0.70;;;23.40;99.90;;;;;;5069639;28;20097;-53
2022/08/23 13:09:38;;;;;;;1.50;0.70;;;23.50;99.90;;;;;;5069380;28;20020;-47
2022/08/23 13:12:06;;;;;;;1.60;0.70;;;23.40;99.90;;;;;;5069746;28;20515;-48